createdAt,value
2018-10-06T00:00:29.357Z,2.23
2018-10-06T00:02:55.930Z,2.43
2018-10-06T00:05:22.320Z,2.17
2018-10-06T00:07:48.787Z,2.40
2018-10-06T00:10:15.168Z,2.27
2018-10-06T00:12:41.560Z,2.30
2018-10-06T00:15:08.093Z,2.10
2018-10-06T00:17:34.486Z,1.90
2018-10-06T00:20:00.862Z,1.90
2018-10-06T00:22:27.281Z,2.27
2018-10-06T00:24:53.700Z,1.87
2018-10-06T00:27:20.154Z,2.10
2018-10-06T00:29:46.589Z,2.30
2018-10-06T00:32:13.030Z,1.70
2018-10-06T00:34:39.405Z,2.37
2018-10-06T00:37:05.782Z,1.90
2018-10-06T00:39:32.194Z,2.00
2018-10-06T00:41:58.574Z,2.37
2018-10-06T00:44:25.065Z,2.43
2018-10-06T00:46:51.433Z,2.00
2018-10-06T00:49:17.842Z,2.27
2018-10-06T00:51:44.290Z,2.20
2018-10-06T00:54:10.667Z,2.10
2018-10-06T00:56:37.099Z,2.17
2018-10-06T00:59:03.491Z,2.47
2018-10-06T01:01:29.865Z,2.23
2018-10-06T01:03:56.275Z,2.10
2018-10-06T01:06:22.649Z,2.20
2018-10-06T01:08:49.031Z,2.17
2018-10-06T01:11:15.467Z,2.20
2018-10-06T01:13:41.847Z,1.87
2018-10-06T01:16:08.288Z,2.03
2018-10-06T01:18:34.755Z,2.33
2018-10-06T01:21:01.116Z,1.70
2018-10-06T01:23:27.495Z,1.87
2018-10-06T01:25:53.885Z,2.07
2018-10-06T01:28:20.318Z,2.23
2018-10-06T01:30:46.709Z,2.33
2018-10-06T01:33:13.199Z,2.30
2018-10-06T01:35:39.649Z,1.83
2018-10-06T01:38:06.049Z,2.00
2018-10-06T01:40:32.483Z,2.00
2018-10-06T01:42:58.947Z,2.03
2018-10-06T01:45:25.342Z,2.03
2018-10-06T01:47:51.878Z,1.90
2018-10-06T01:50:18.304Z,2.17
2018-10-06T01:52:44.784Z,2.10
2018-10-06T01:55:11.172Z,1.90
2018-10-06T01:57:37.567Z,2.00
2018-10-06T02:00:04.034Z,1.90
2018-10-06T02:02:30.427Z,2.17
2018-10-06T02:04:56.803Z,2.00
2018-10-06T02:07:23.256Z,2.03
2018-10-06T02:09:49.654Z,1.90
2018-10-06T02:12:16.127Z,1.90
2018-10-06T02:14:42.695Z,1.87
2018-10-06T02:17:09.170Z,2.13
2018-10-06T02:19:35.535Z,2.00
2018-10-06T02:22:01.986Z,2.20
2018-10-06T02:24:28.484Z,2.20
2018-10-06T02:26:54.883Z,2.30
2018-10-06T02:29:21.315Z,2.20
2018-10-06T02:31:47.721Z,1.80
2018-10-06T02:34:14.231Z,2.10
2018-10-06T02:36:40.900Z,2.00
2018-10-06T02:39:07.318Z,1.90
2018-10-06T02:41:33.759Z,1.90
2018-10-06T02:44:00.150Z,1.73
2018-10-06T02:46:26.604Z,1.80
2018-10-06T02:48:52.982Z,1.90
2018-10-06T02:51:19.412Z,1.70
2018-10-06T02:53:45.893Z,1.80
2018-10-06T02:56:12.337Z,1.70
2018-10-06T02:58:38.869Z,2.03
2018-10-06T03:01:05.266Z,1.90
2018-10-06T03:03:31.642Z,2.10
2018-10-06T03:05:58.067Z,1.90
2018-10-06T03:08:24.444Z,1.73
2018-10-06T03:10:50.822Z,1.80
2018-10-06T03:13:17.274Z,1.83
2018-10-06T03:15:43.693Z,2.17
2018-10-06T03:18:10.128Z,2.00
2018-10-06T03:20:36.663Z,1.90
2018-10-06T03:23:03.087Z,2.17
2018-10-06T03:25:29.511Z,1.97
2018-10-06T03:27:55.947Z,1.90
2018-10-06T03:30:22.322Z,1.77
2018-10-06T03:32:49.003Z,2.10
2018-10-06T03:35:15.367Z,1.90
2018-10-06T03:37:41.795Z,2.00
2018-10-06T03:40:08.204Z,1.67
2018-10-06T03:42:35.380Z,1.87
2018-10-06T03:45:01.766Z,1.77
2018-10-06T03:47:28.223Z,1.93
2018-10-06T03:49:54.629Z,1.90
2018-10-06T03:52:21.107Z,2.10
2018-10-06T03:54:47.519Z,1.90
2018-10-06T03:57:13.968Z,1.70
2018-10-06T03:59:40.509Z,1.93
2018-10-06T04:02:07.131Z,1.83
2018-10-06T04:04:33.572Z,2.07
2018-10-06T04:06:59.935Z,1.83
2018-10-06T04:09:26.441Z,1.83
2018-10-06T04:11:52.848Z,2.20
2018-10-06T04:14:19.289Z,2.10
2018-10-06T04:16:45.673Z,2.00
2018-10-06T04:19:12.045Z,2.00
2018-10-06T04:21:38.444Z,1.70
2018-10-06T04:24:04.864Z,1.80
2018-10-06T04:26:31.297Z,1.80
2018-10-06T04:28:57.641Z,2.00
2018-10-06T04:31:23.998Z,1.80
2018-10-06T04:33:50.400Z,2.00
2018-10-06T04:36:16.866Z,1.77
2018-10-06T04:38:43.256Z,1.70
2018-10-06T04:41:09.658Z,1.93
2018-10-06T04:43:36.163Z,1.90
2018-10-06T04:46:02.525Z,1.90
2018-10-06T04:48:28.912Z,1.70
2018-10-06T04:50:55.248Z,1.70
2018-10-06T04:53:21.664Z,1.80
2018-10-06T04:55:48.016Z,1.97
2018-10-06T04:58:14.475Z,2.07
2018-10-06T05:00:40.872Z,1.77
2018-10-06T05:03:07.217Z,2.00
2018-10-06T05:05:33.674Z,2.37
2018-10-06T05:08:00.873Z,1.90
2018-10-06T05:10:27.274Z,1.70
2018-10-06T05:12:53.613Z,1.90
2018-10-06T05:15:20.006Z,1.50
2018-10-06T05:17:46.408Z,1.97
2018-10-06T05:20:12.795Z,1.80
2018-10-06T05:22:39.127Z,2.00
2018-10-06T05:25:05.591Z,1.93
2018-10-06T05:27:31.956Z,1.70
2018-10-06T05:29:58.349Z,2.00
2018-10-06T05:32:24.685Z,2.10
2018-10-06T05:34:51.151Z,1.80
2018-10-06T05:37:17.555Z,1.73
2018-10-06T05:39:43.893Z,1.73
2018-10-06T05:42:10.230Z,2.03
2018-10-06T05:44:36.569Z,1.90
2018-10-06T05:47:02.968Z,1.90
2018-10-06T05:49:29.545Z,1.50
2018-10-06T05:51:55.886Z,1.77
2018-10-06T05:54:22.216Z,2.17
2018-10-06T05:56:48.545Z,1.80
2018-10-06T05:59:14.940Z,1.90
2018-10-06T06:01:41.281Z,2.10
2018-10-06T06:04:07.625Z,1.80
2018-10-06T06:06:33.969Z,1.70
2018-10-06T06:09:00.341Z,1.90
2018-10-06T06:11:26.764Z,2.10
2018-10-06T06:13:53.164Z,1.93
2018-10-06T06:16:19.497Z,2.00
2018-10-06T06:18:45.869Z,1.97
2018-10-06T06:21:12.189Z,2.10
2018-10-06T06:23:38.583Z,1.70
2018-10-06T06:26:04.917Z,2.10
2018-10-06T06:28:31.272Z,2.27
2018-10-06T06:30:57.640Z,1.87
2018-10-06T06:33:24.043Z,1.67
2018-10-06T06:35:50.387Z,2.20
2018-10-06T06:38:16.819Z,1.90
2018-10-06T06:40:43.153Z,1.97
2018-10-06T06:43:09.643Z,1.70
2018-10-06T06:45:35.986Z,2.20
2018-10-06T06:48:02.401Z,1.70
2018-10-06T06:50:28.787Z,2.17
2018-10-06T06:52:55.131Z,1.77
2018-10-06T06:55:21.502Z,1.97
2018-10-06T06:57:47.828Z,2.00
2018-10-06T07:00:14.161Z,1.90
2018-10-06T07:02:40.526Z,1.83
2018-10-06T07:05:06.848Z,2.10
2018-10-06T07:07:33.247Z,1.80
2018-10-06T07:09:59.613Z,1.70
2018-10-06T07:12:25.971Z,2.00
2018-10-06T07:14:52.375Z,1.70
2018-10-06T07:17:18.771Z,1.90
2018-10-06T07:19:45.101Z,1.80
2018-10-06T07:22:11.505Z,1.80
2018-10-06T07:24:37.888Z,2.10
2018-10-06T07:27:04.267Z,1.93
2018-10-06T07:29:30.737Z,1.90
2018-10-06T07:31:57.147Z,1.97
2018-10-06T07:34:23.668Z,1.70
2018-10-06T07:36:50.030Z,1.73
2018-10-06T07:39:16.435Z,2.13
2018-10-06T07:41:42.793Z,1.50
2018-10-06T07:46:41.568Z,1.63
2018-10-06T07:49:07.964Z,1.70
2018-10-06T07:51:34.468Z,1.80
2018-10-06T07:54:00.805Z,1.70
2018-10-06T07:56:27.197Z,1.67
2018-10-06T08:01:24.402Z,1.83
2018-10-06T08:03:50.834Z,1.70
2018-10-06T08:06:17.175Z,1.60
2018-10-06T08:08:43.563Z,1.60
2018-10-06T08:11:09.911Z,1.70
2018-10-06T08:13:36.464Z,1.70
2018-10-06T08:16:02.804Z,1.40
2018-10-06T08:18:29.197Z,1.60
2018-10-06T08:20:55.541Z,1.70
2018-10-06T08:23:21.912Z,1.80
2018-10-06T08:25:48.232Z,1.70
2018-10-06T08:28:14.646Z,1.80
2018-10-06T08:30:40.997Z,1.67
2018-10-06T08:33:07.378Z,1.60
2018-10-06T08:35:33.754Z,1.70
2018-10-06T08:38:00.661Z,1.50
2018-10-06T08:40:27.045Z,1.63
2018-10-06T08:42:53.490Z,1.60
2018-10-06T08:45:19.985Z,2.00
2018-10-06T08:47:46.335Z,1.57
2018-10-06T08:50:12.670Z,1.47
2018-10-06T08:52:39.022Z,1.70
2018-10-06T08:55:05.424Z,1.50
2018-10-06T08:57:31.783Z,1.50
2018-10-06T08:59:58.180Z,1.70
2018-10-06T09:02:24.572Z,1.60
2018-10-06T09:04:50.966Z,1.67
2018-10-06T09:07:17.477Z,1.60
2018-10-06T09:09:43.826Z,1.80
2018-10-06T09:12:10.169Z,1.60
2018-10-06T09:14:36.561Z,1.67
2018-10-06T09:17:02.908Z,1.80
2018-10-06T09:19:29.239Z,1.50
2018-10-06T09:21:55.652Z,1.60
2018-10-06T09:24:21.996Z,1.53
2018-10-06T09:26:48.391Z,1.63
2018-10-06T09:29:14.745Z,1.50
2018-10-06T09:31:41.253Z,1.60
2018-10-06T09:34:07.624Z,1.80
2018-10-06T09:36:33.962Z,1.70
2018-10-06T09:39:00.397Z,1.57
2018-10-06T09:41:26.854Z,1.70
2018-10-06T09:43:53.339Z,1.47
2018-10-06T09:46:19.702Z,1.60
2018-10-06T09:48:46.075Z,1.60
2018-10-06T09:51:12.422Z,1.70
2018-10-06T09:53:38.810Z,1.60
2018-10-06T09:56:05.183Z,1.60
2018-10-06T09:58:31.557Z,1.60
2018-10-06T10:00:57.954Z,1.80
2018-10-06T10:03:24.368Z,1.40
2018-10-06T10:05:50.800Z,1.93
2018-10-06T10:08:17.441Z,1.90
2018-10-06T10:10:43.752Z,1.63
2018-10-06T10:13:10.092Z,1.90
2018-10-06T10:15:36.485Z,1.87
2018-10-06T10:18:02.882Z,1.50
2018-10-06T10:20:29.180Z,1.57
2018-10-06T10:22:55.570Z,1.57
2018-10-06T10:25:21.874Z,1.60
2018-10-06T10:27:48.204Z,1.70
2018-10-06T10:30:14.541Z,1.90
2018-10-06T10:32:40.971Z,1.40
2018-10-06T10:35:07.330Z,1.60
2018-10-06T10:37:33.789Z,1.70
2018-10-06T10:40:00.079Z,1.50
2018-10-06T10:42:26.440Z,1.80
2018-10-06T10:44:52.801Z,1.50
2018-10-06T10:47:19.172Z,1.70
2018-10-06T10:49:45.484Z,1.63
2018-10-06T10:52:11.826Z,1.60
2018-10-06T10:54:38.242Z,1.70
2018-10-06T10:57:04.614Z,1.70
2018-10-06T10:59:31.020Z,1.70
2018-10-06T11:01:57.365Z,1.60
2018-10-06T11:04:23.767Z,1.80
2018-10-06T11:06:50.123Z,1.60
2018-10-06T11:09:16.538Z,1.60
2018-10-06T11:11:42.894Z,1.70
2018-10-06T11:14:09.244Z,1.63
2018-10-06T11:16:35.612Z,1.80
2018-10-06T11:19:02.018Z,1.80
2018-10-06T11:21:28.493Z,1.77
2018-10-06T11:23:54.836Z,1.60
2018-10-06T11:26:21.168Z,1.90
2018-10-06T11:28:47.547Z,1.50
2018-10-06T11:31:13.900Z,1.60
2018-10-06T11:33:40.296Z,1.93
2018-10-06T11:36:06.647Z,1.70
2018-10-06T11:38:33.117Z,1.80
2018-10-06T11:40:59.460Z,1.70
2018-10-06T11:43:25.899Z,2.00
2018-10-06T11:45:52.273Z,1.93
2018-10-06T11:48:18.683Z,1.70
2018-10-06T11:50:45.052Z,1.63
2018-10-06T11:53:11.392Z,1.80
2018-10-06T11:55:37.817Z,1.70
2018-10-06T11:58:04.258Z,1.77
2018-10-06T12:00:30.742Z,1.57
2018-10-06T12:02:57.256Z,1.70
2018-10-06T12:05:23.735Z,1.50
2018-10-06T12:07:50.085Z,1.53
2018-10-06T12:10:16.415Z,1.70
2018-10-06T12:12:42.796Z,1.80
2018-10-06T12:15:09.196Z,1.53
2018-10-06T12:17:35.592Z,1.63
2018-10-06T12:20:01.923Z,1.70
2018-10-06T12:22:28.261Z,1.67
2018-10-06T12:24:54.686Z,1.80
2018-10-06T12:27:21.047Z,1.90
2018-10-06T12:29:47.400Z,1.93
2018-10-06T12:32:13.757Z,1.73
2018-10-06T12:34:40.124Z,1.77
2018-10-06T12:37:06.472Z,1.70
2018-10-06T12:39:32.851Z,1.70
2018-10-06T12:41:59.209Z,1.47
2018-10-06T12:44:25.644Z,1.90
2018-10-06T12:46:52.001Z,1.90
2018-10-06T12:49:18.351Z,1.53
2018-10-06T12:51:44.754Z,1.90
2018-10-06T12:54:11.116Z,1.73
2018-10-06T12:56:37.452Z,1.77
2018-10-06T12:59:03.786Z,1.80
2018-10-06T13:01:30.163Z,2.00
2018-10-06T13:03:56.501Z,1.77
2018-10-06T13:06:22.854Z,1.60
2018-10-06T13:08:49.194Z,1.67
2018-10-06T13:11:15.657Z,1.70
2018-10-06T13:13:42.008Z,1.93
2018-10-06T13:16:08.377Z,1.90
2018-10-06T13:18:34.799Z,1.70
2018-10-06T13:21:01.178Z,1.87
2018-10-06T13:23:27.526Z,1.90
2018-10-06T13:25:53.891Z,1.97
2018-10-06T13:28:20.250Z,2.10
2018-10-06T13:30:46.594Z,1.70
2018-10-06T13:33:12.924Z,1.70
2018-10-06T13:35:39.317Z,1.70
2018-10-06T13:38:05.705Z,1.70
2018-10-06T13:40:32.089Z,1.70
2018-10-06T13:42:58.439Z,1.80
2018-10-06T13:45:24.766Z,1.77
2018-10-06T13:47:51.114Z,1.83
2018-10-06T13:50:17.445Z,1.97
2018-10-06T13:52:43.784Z,1.70
2018-10-06T13:55:11.133Z,1.70
2018-10-06T13:57:37.492Z,1.60
2018-10-06T14:00:03.828Z,1.70
2018-10-06T14:02:30.197Z,1.77
2018-10-06T14:04:56.532Z,1.80
2018-10-06T14:07:22.915Z,1.80
2018-10-06T14:09:49.240Z,1.50
2018-10-06T14:12:15.576Z,1.60
2018-10-06T14:14:41.983Z,1.80
2018-10-06T14:17:08.339Z,1.60
2018-10-06T14:19:34.716Z,1.70
2018-10-06T14:22:01.064Z,1.63
2018-10-06T14:24:27.405Z,1.70
2018-10-06T14:26:53.748Z,2.00
2018-10-06T14:29:20.883Z,1.60
2018-10-06T14:31:47.253Z,1.70
2018-10-06T14:34:13.588Z,1.70
2018-10-06T14:36:39.933Z,1.63
2018-10-06T14:39:06.276Z,1.60
2018-10-06T14:41:32.678Z,1.90
2018-10-06T14:43:59.109Z,1.80
2018-10-06T14:46:25.548Z,1.60
2018-10-06T14:48:51.932Z,1.63
2018-10-06T14:51:18.273Z,1.53
2018-10-06T14:53:44.760Z,1.50
2018-10-06T14:56:11.114Z,1.87
2018-10-06T14:58:37.492Z,1.80
2018-10-06T15:01:03.873Z,1.60
2018-10-06T15:03:30.286Z,1.83
2018-10-06T15:05:56.724Z,1.70
2018-10-06T15:08:23.135Z,1.73
2018-10-06T15:10:49.514Z,1.70
2018-10-06T15:13:15.857Z,1.80
2018-10-06T15:15:42.268Z,1.93
2018-10-06T15:18:08.656Z,1.90
2018-10-06T15:20:35.000Z,1.60
2018-10-06T15:23:01.401Z,1.70
2018-10-06T15:25:27.820Z,1.50
2018-10-06T15:27:54.231Z,1.60
2018-10-06T15:30:20.581Z,1.83
2018-10-06T15:32:46.915Z,1.93
2018-10-06T15:35:13.343Z,1.90
2018-10-06T15:37:39.704Z,1.70
2018-10-06T15:40:06.114Z,1.70
2018-10-06T15:42:32.441Z,1.60
2018-10-06T15:44:58.808Z,2.00
2018-10-06T15:47:25.191Z,1.60
2018-10-06T15:49:51.578Z,1.50
2018-10-06T15:52:17.968Z,1.90
2018-10-06T15:54:44.350Z,1.77
2018-10-06T15:57:10.696Z,1.70
2018-10-06T15:59:37.181Z,1.70
2018-10-06T16:02:03.522Z,2.00
2018-10-06T16:04:29.856Z,1.80
2018-10-06T16:06:56.462Z,2.00
2018-10-06T16:09:22.815Z,1.80
2018-10-06T16:11:49.280Z,1.70
2018-10-06T16:14:15.653Z,1.90
2018-10-06T16:16:42.031Z,1.83
2018-10-06T16:19:08.366Z,1.60
2018-10-06T16:21:34.993Z,2.10
2018-10-06T16:24:01.288Z,2.13
2018-10-06T16:26:27.686Z,2.30
2018-10-06T16:28:54.025Z,1.90
2018-10-06T16:31:20.380Z,1.80
2018-10-06T16:33:46.770Z,1.80
2018-10-06T16:36:13.174Z,1.83
2018-10-06T16:38:39.557Z,1.83
2018-10-06T16:41:05.896Z,1.90
2018-10-06T16:43:32.258Z,1.80
2018-10-06T16:45:58.686Z,2.10
2018-10-06T16:48:25.037Z,2.10
2018-10-06T16:50:51.475Z,2.20
2018-10-06T16:53:17.879Z,1.83
2018-10-06T16:55:44.293Z,1.80
2018-10-06T16:58:10.656Z,1.90
2018-10-06T17:00:37.062Z,2.10
2018-10-06T17:03:03.397Z,2.20
2018-10-06T17:05:29.768Z,2.30
2018-10-06T17:07:56.174Z,2.10
2018-10-06T17:10:22.534Z,2.00
2018-10-06T17:12:49.122Z,1.97
2018-10-06T17:15:15.605Z,2.00
2018-10-06T17:17:42.024Z,1.77
2018-10-06T17:20:08.366Z,1.90
2018-10-06T17:22:34.756Z,1.87
2018-10-06T17:25:01.127Z,2.07
2018-10-06T17:27:27.489Z,2.00
2018-10-06T17:29:53.853Z,1.93
2018-10-06T17:32:20.235Z,2.23
2018-10-06T17:34:46.585Z,1.90
2018-10-06T17:37:12.982Z,2.10
2018-10-06T17:39:39.348Z,2.40
2018-10-06T17:42:05.864Z,2.10
2018-10-06T17:44:32.463Z,1.90
2018-10-06T17:46:58.801Z,2.20
2018-10-06T17:49:25.153Z,2.47
2018-10-06T17:51:51.584Z,2.00
2018-10-06T17:54:17.925Z,2.10
2018-10-06T17:56:44.307Z,1.97
2018-10-06T17:59:10.680Z,2.03
2018-10-06T18:01:37.076Z,1.90
2018-10-06T18:04:03.437Z,1.97
2018-10-06T18:06:29.849Z,1.80
2018-10-06T18:08:56.185Z,2.00
2018-10-06T18:11:22.537Z,2.00
2018-10-06T18:13:48.890Z,2.10
2018-10-06T18:16:15.241Z,2.17
2018-10-06T18:18:41.709Z,1.80
2018-10-06T18:21:08.185Z,2.10
2018-10-06T18:23:34.489Z,1.70
2018-10-06T18:26:00.849Z,1.70
2018-10-06T18:28:27.176Z,2.00
2018-10-06T18:30:53.529Z,1.93
2018-10-06T18:33:19.940Z,2.00
2018-10-06T18:35:46.352Z,1.90
2018-10-06T18:38:12.688Z,2.10
2018-10-06T18:40:39.220Z,1.80
2018-10-06T18:43:05.693Z,1.90
2018-10-06T18:45:31.970Z,2.20
2018-10-06T18:47:58.319Z,2.20
2018-10-06T18:50:24.733Z,2.10
2018-10-06T18:52:51.083Z,2.17
2018-10-06T18:55:17.443Z,2.10
2018-10-06T18:57:43.860Z,2.10
2018-10-06T19:00:10.271Z,2.20
2018-10-06T19:02:36.804Z,1.90
2018-10-06T19:05:03.133Z,2.37
2018-10-06T19:07:29.488Z,2.13
2018-10-06T19:09:55.953Z,2.10
2018-10-06T19:12:22.246Z,1.80
2018-10-06T19:14:48.636Z,2.53
2018-10-06T19:17:14.984Z,2.03
2018-10-06T19:19:41.314Z,2.10
2018-10-06T19:22:07.721Z,2.20
2018-10-06T19:24:34.083Z,2.23
2018-10-06T19:27:00.410Z,2.23
2018-10-06T19:29:26.737Z,2.30
2018-10-06T19:31:53.125Z,2.20
2018-10-06T19:34:19.531Z,2.00
2018-10-06T19:36:45.909Z,2.07
2018-10-06T19:39:12.316Z,2.13
2018-10-06T19:41:38.689Z,2.10
2018-10-06T19:44:05.079Z,2.13
2018-10-06T19:46:31.562Z,2.30
2018-10-06T19:48:57.995Z,2.00
2018-10-06T19:51:24.426Z,2.50
2018-10-06T19:53:50.759Z,2.10
2018-10-06T19:56:17.140Z,2.20
2018-10-06T19:58:43.542Z,2.40
2018-10-06T20:01:09.931Z,2.20
2018-10-06T20:03:36.298Z,2.20
2018-10-06T20:06:02.678Z,2.37
2018-10-06T20:08:29.024Z,2.20
2018-10-06T20:10:55.364Z,2.30
2018-10-06T20:13:21.775Z,2.30
2018-10-06T20:15:48.118Z,2.37
2018-10-06T20:18:14.505Z,2.10
2018-10-06T20:20:40.897Z,2.27
2018-10-06T20:23:07.257Z,2.13
2018-10-06T20:25:33.676Z,2.17
2018-10-06T20:28:00.013Z,2.30
2018-10-06T20:30:26.414Z,2.30
2018-10-06T20:32:52.937Z,2.20
2018-10-06T20:35:19.231Z,2.00
2018-10-06T20:37:45.612Z,2.17
2018-10-06T20:40:12.029Z,2.20
2018-10-06T20:42:38.382Z,2.37
2018-10-06T20:45:04.764Z,2.60
2018-10-06T20:47:31.161Z,2.60
2018-10-06T20:49:57.525Z,2.30
2018-10-06T20:54:56.413Z,2.43
2018-10-06T20:57:22.792Z,2.27
2018-10-06T20:59:49.119Z,2.00
2018-10-06T21:02:15.480Z,2.40
2018-10-06T21:04:41.907Z,2.20
2018-10-06T21:07:08.261Z,2.40
2018-10-06T21:09:34.656Z,1.97
2018-10-06T21:12:01.005Z,2.27
2018-10-06T21:14:27.554Z,2.20
2018-10-06T21:16:53.896Z,2.20
2018-10-06T21:19:20.228Z,2.10
2018-10-06T21:21:46.565Z,2.27
2018-10-06T21:24:12.891Z,2.23
2018-10-06T21:26:39.369Z,2.10
2018-10-06T21:29:05.795Z,1.83
2018-10-06T21:31:32.258Z,2.20
2018-10-06T21:33:58.528Z,2.20
2018-10-06T21:36:24.930Z,2.23
2018-10-06T21:38:51.280Z,2.30
2018-10-06T21:41:17.680Z,2.20
2018-10-06T21:43:44.038Z,2.63
2018-10-06T21:46:10.451Z,2.20
2018-10-06T21:48:36.821Z,2.30
2018-10-06T21:51:03.228Z,2.17
2018-10-06T21:53:29.570Z,2.40
2018-10-06T21:55:56.027Z,2.30
2018-10-06T21:58:22.381Z,2.37
2018-10-06T22:00:48.713Z,2.20
2018-10-06T22:03:15.078Z,2.33
2018-10-06T22:05:41.615Z,2.10
2018-10-06T22:08:07.952Z,2.10
2018-10-06T22:10:34.316Z,2.37
2018-10-06T22:13:00.676Z,2.10
2018-10-06T22:15:27.077Z,2.50
2018-10-06T22:17:53.468Z,2.30
2018-10-06T22:20:19.804Z,2.20
2018-10-06T22:22:46.229Z,2.30
2018-10-06T22:25:12.598Z,2.50
2018-10-06T22:27:38.987Z,2.37
2018-10-06T22:30:05.397Z,2.23
2018-10-06T22:32:31.739Z,2.60
2018-10-06T22:34:58.060Z,2.60
2018-10-06T22:37:24.392Z,2.27
2018-10-06T22:39:50.731Z,2.50
2018-10-06T22:42:17.197Z,2.20
2018-10-06T22:44:43.543Z,2.17
2018-10-06T22:47:09.938Z,2.40
2018-10-06T22:49:36.273Z,2.20
2018-10-06T22:52:02.648Z,2.27
2018-10-06T22:54:29.004Z,2.47
2018-10-06T22:56:55.463Z,2.40
2018-10-06T22:59:21.753Z,2.00
2018-10-06T23:01:48.083Z,2.50
2018-10-06T23:04:14.423Z,2.40
2018-10-06T23:06:40.806Z,2.30
2018-10-06T23:09:07.164Z,2.43
2018-10-06T23:11:33.622Z,2.20
2018-10-06T23:14:00.022Z,2.30
2018-10-06T23:16:26.405Z,2.20
2018-10-06T23:18:52.789Z,2.10
2018-10-06T23:21:19.196Z,2.33
2018-10-06T23:23:45.546Z,2.50
2018-10-06T23:26:11.906Z,2.30
2018-10-06T23:28:38.258Z,2.20
2018-10-06T23:31:04.696Z,2.10
2018-10-06T23:33:31.079Z,2.63
2018-10-06T23:35:57.432Z,2.40
2018-10-06T23:38:23.850Z,2.27
2018-10-06T23:40:50.277Z,2.00
2018-10-06T23:43:16.657Z,2.57
2018-10-06T23:45:43.012Z,2.20
2018-10-06T23:48:09.364Z,2.10
2018-10-06T23:50:35.759Z,2.07
2018-10-06T23:53:02.090Z,2.20
2018-10-06T23:55:28.485Z,2.00
2018-10-06T23:57:54.876Z,2.10
